Time;durP1;ratioP1;P1;durP2;ratioP2;P2;SDS_P1;SDS_P2;PMS_P1;PMS_P2;Temp;Humidity;BMP_temperature;BMP_pressure;BME280_temperature;BME280_humidity;BME280_pressure;Samples;Min_cycle;Max_cycle;Signal;HPM_P1;HPM_P2
2022/08/12 00:44:20;;;;;;;4.07;2.90;;;;;;;18.14;61.86;100028.22;5039655;28;20039;-85
2022/08/12 00:46:50;;;;;;;3.97;2.20;;;;;;;18.11;62.04;100032.03;5047574;28;20045;-84
2022/08/12 00:49:17;;;;;;;5.03;2.63;;;;;;;18.08;62.35;100029.38;4984864;28;20043;-85
2022/08/12 00:54:29;;;;;;;4.28;2.60;;;;;;;18.04;62.52;100034.44;4988107;28;20042;-85
2022/08/12 00:56:56;;;;;;;3.95;2.50;;;;;;;18.01;62.64;100029.81;5041753;28;20482;-84
2022/08/12 00:59:23;;;;;;;5.13;2.38;;;;;;;17.95;62.58;100026.16;5031419;28;20091;-85
2022/08/12 01:01:49;;;;;;;4.70;2.50;;;;;;;17.89;63.26;100022.47;4999945;28;20038;-84
2022/08/12 01:12:36;;;;;;;4.68;2.55;;;;;;;17.76;64.39;100008.78;4985300;28;20039;-84
2022/08/12 01:15:02;;;;;;;4.28;2.80;;;;;;;17.77;64.58;100015.16;5051626;28;20050;-84
2022/08/12 01:17:29;;;;;;;3.90;2.80;;;;;;;17.55;66.88;100010.72;4991412;28;20137;-84
2022/08/12 01:19:56;;;;;;;3.88;2.63;;;;;;;17.62;66.25;100010.38;5050120;28;20452;-85
2022/08/12 01:22:29;;;;;;;4.47;2.83;;;;;;;17.59;66.43;100002.91;4987646;28;20497;-85
2022/08/12 01:25:18;;;;;;;3.63;2.75;;;;;;;17.52;66.66;100002.50;5055714;28;20065;-85
2022/08/12 01:27:45;;;;;;;3.85;2.72;;;;;;;17.52;66.35;100011.69;4983624;28;20045;-84
2022/08/12 01:30:12;;;;;;;5.05;2.60;;;;;;;17.55;66.01;100004.34;5041644;28;20034;-84
2022/08/12 01:32:39;;;;;;;3.92;2.60;;;;;;;17.51;66.09;100004.53;4981981;28;20077;-85
2022/08/12 01:35:09;;;;;;;7.43;2.75;;;;;;;17.51;66.41;99998.91;4987760;28;20052;-84
2022/08/12 01:37:57;;;;;;;5.03;2.70;;;;;;;17.51;66.15;99990.50;5055431;28;20406;-84
2022/08/12 01:40:26;;;;;;;4.22;2.40;;;;;;;17.52;67.03;99994.84;4981553;28;20086;-84
2022/08/12 01:42:54;;;;;;;3.72;2.47;;;;;;;17.55;66.57;99999.50;4971258;28;20055;-85
2022/08/12 01:45:23;;;;;;;5.00;2.20;;;;;;;17.57;66.38;100013.84;5043584;28;20057;-84
2022/08/12 01:48:22;;;;;;;4.70;2.75;;;;;;;17.45;66.81;100017.69;5051718;28;20083;-85
2022/08/12 01:51:13;;;;;;;3.90;2.40;;;;;;;17.14;67.88;100018.19;4975503;28;20043;-84
2022/08/12 01:54:03;;;;;;;3.42;2.40;;;;;;;16.98;68.02;100013.06;5038279;28;20509;-85
2022/08/12 01:56:32;;;;;;;5.20;2.80;;;;;;;16.69;69.41;100022.19;4989366;28;20038;-84
2022/08/12 02:01:46;;;;;;;3.47;2.50;;;;;;;16.46;69.69;100017.34;5036895;28;20121;-85
2022/08/12 02:11:17;;;;;;;5.40;2.47;;;;;;;16.15;71.17;99998.13;5045011;28;20047;-84
2022/08/12 02:14:05;;;;;;;3.63;2.55;;;;;;;16.16;71.38;99998.91;4921641;28;20517;-85
2022/08/12 02:16:30;;;;;;;6.07;2.70;;;;;;;16.16;71.62;99982.09;4980189;28;20043;-85
2022/08/12 02:19:26;;;;;;;7.90;3.00;;;;;;;16.15;71.14;99986.16;4982234;28;20046;-85
2022/08/12 02:21:57;;;;;;;5.18;2.90;;;;;;;16.10;71.50;100000.78;5068765;28;20172;-84
2022/08/12 02:24:26;;;;;;;3.78;2.60;;;;;;;16.11;70.55;100005.13;4979297;28;20145;-85
2022/08/12 02:26:53;;;;;;;4.65;3.17;;;;;;;16.06;70.80;99994.59;5046594;28;20138;-85
2022/08/12 02:29:19;;;;;;;4.18;2.90;;;;;;;15.92;71.60;99989.72;4977952;28;20043;-85
2022/08/12 02:31:46;;;;;;;5.82;2.70;;;;;;;15.84;71.79;99984.47;5054099;28;20042;-84
2022/08/12 02:34:13;;;;;;;6.70;3.28;;;;;;;15.85;72.61;99990.84;5041280;28;20460;-85
2022/08/12 02:36:39;;;;;;;3.33;2.60;;;;;;;15.87;72.10;99996.72;4988533;28;20501;-85
2022/08/12 02:39:07;;;;;;;3.45;2.60;;;;;;;15.83;72.44;99988.50;4985828;28;20058;-84
2022/08/12 02:41:34;;;;;;;4.28;2.97;;;;;;;15.87;72.37;99991.13;5038210;28;20050;-85
2022/08/12 02:44:04;;;;;;;5.15;2.65;;;;;;;15.79;72.73;99987.91;5055288;28;20038;-85
2022/08/12 02:46:33;;;;;;;4.50;2.92;;;;;;;15.79;72.82;99990.72;5046707;28;20043;-85
2022/08/12 02:49:03;;;;;;;3.50;3.00;;;;;;;15.74;73.58;99993.38;5048730;28;20038;-85
2022/08/12 02:51:33;;;;;;;4.32;3.00;;;;;;;15.62;74.54;99997.94;4986605;28;20038;-85
2022/08/12 02:54:02;;;;;;;4.40;3.00;;;;;;;15.65;74.47;99990.63;4986295;28;20144;-84
2022/08/12 02:56:28;;;;;;;4.85;3.10;;;;;;;15.56;74.47;99985.84;4984893;28;20049;-85
2022/08/12 02:58:54;;;;;;;3.70;2.85;;;;;;;15.57;74.08;99984.59;5039364;28;20046;-85
2022/08/12 03:01:27;;;;;;;4.78;2.90;;;;;;;15.53;74.27;99983.22;5039924;28;20046;-85
2022/08/12 03:03:54;;;;;;;5.18;3.05;;;;;;;15.55;73.46;99981.50;5054574;28;20101;-84
2022/08/12 03:06:21;;;;;;;5.93;2.90;;;;;;;15.62;73.01;99980.38;5047246;28;20049;-85
2022/08/12 03:08:48;;;;;;;7.65;3.10;;;;;;;15.60;74.79;99985.69;5050903;28;20062;-84
2022/08/12 03:11:24;;;;;;;3.60;2.72;;;;;;;15.57;74.47;99981.78;4980872;28;20046;-85
2022/08/12 03:13:52;;;;;;;3.33;2.80;;;;;;;15.50;74.36;99976.53;5050533;28;20042;-85
2022/08/12 03:16:22;;;;;;;4.85;2.80;;;;;;;15.56;74.58;99980.25;5069283;28;20492;-85
2022/08/12 03:18:49;;;;;;;6.40;2.60;;;;;;;15.56;74.68;99971.88;4981756;28;20471;-85
2022/08/12 03:21:16;;;;;;;4.22;2.65;;;;;;;15.65;73.94;99977.41;4984682;28;20042;-84
2022/08/12 03:23:44;;;;;;;3.55;2.50;;;;;;;15.58;74.18;99986.13;4974983;28;20046;-84
2022/08/12 03:26:10;;;;;;;5.35;3.45;;;;;;;15.53;75.19;100000.00;5068354;28;20047;-84
2022/08/12 03:28:52;;;;;;;5.47;3.10;;;;;;;15.39;75.88;99993.03;4977418;28;20453;-85
2022/08/12 03:31:20;;;;;;;4.15;2.80;;;;;;;15.39;76.10;99998.63;4982786;28;20077;-84
2022/08/12 03:33:48;;;;;;;7.78;2.90;;;;;;;15.36;76.21;100005.16;4984099;28;20522;-85
2022/08/12 03:36:17;;;;;;;4.97;2.92;;;;;;;15.28;76.20;99995.53;5041469;28;20064;-84
2022/08/12 03:38:49;;;;;;;5.75;2.92;;;;;;;15.29;76.06;99994.28;5050602;28;20053;-85
2022/08/12 03:41:35;;;;;;;6.97;3.42;;;;;;;15.21;76.75;100002.22;5035088;28;20039;-85
2022/08/12 04:01:24;;;;;;;4.30;3.40;;;;;;;15.07;78.47;100016.09;4982763;28;20043;-84
2022/08/12 04:03:53;;;;;;;5.47;3.10;;;;;;;15.17;77.66;100014.81;4986925;28;20050;-84
2022/08/12 04:06:27;;;;;;;9.48;3.30;;;;;;;15.16;77.93;100024.44;5050425;28;20537;-84
2022/08/12 04:08:57;;;;;;;4.93;2.80;;;;;;;15.15;77.52;100020.88;4982074;28;20498;-84
2022/08/12 04:14:19;;;;;;;3.55;2.60;;;;;;;15.18;77.51;100031.09;4978930;28;20047;-84
2022/08/12 04:16:48;;;;;;;5.05;2.63;;;;;;;15.27;76.46;100030.31;4975990;28;20039;-84
2022/08/12 04:19:15;;;;;;;4.15;2.83;;;;;;;15.34;76.42;100032.78;5045021;28;20054;-84
2022/08/12 04:21:41;;;;;;;3.95;2.85;;;;;;;15.42;76.29;100034.00;4983094;28;20386;-84
2022/08/12 04:24:08;;;;;;;5.50;2.90;;;;;;;15.41;76.52;100040.81;4977720;28;20099;-84
2022/08/12 04:26:38;;;;;;;6.22;3.25;;;;;;;15.43;76.01;100032.75;4971204;28;20086;-84
2022/08/12 04:29:04;;;;;;;6.43;3.10;;;;;;;15.56;75.71;100036.19;5040956;28;20125;-84
2022/08/12 04:31:31;;;;;;;6.82;3.20;;;;;;;15.56;75.78;100041.75;4979140;28;20559;-84
2022/08/12 04:33:58;;;;;;;6.38;3.00;;;;;;;15.62;75.88;100044.69;4972052;28;20472;-84
2022/08/12 04:36:24;;;;;;;6.88;3.47;;;;;;;15.54;76.51;100038.66;4981496;28;20054;-84
2022/08/12 04:38:51;;;;;;;6.28;3.35;;;;;;;15.50;76.43;100031.69;4980180;28;20104;-85
2022/08/12 04:41:17;;;;;;;5.20;3.38;;;;;;;15.51;76.66;100042.41;5052577;28;20114;-84
2022/08/12 04:43:43;;;;;;;5.88;3.38;;;;;;;15.57;76.12;100046.09;5039740;28;20077;-84
2022/08/12 04:46:10;;;;;;;6.05;3.15;;;;;;;15.64;76.71;100037.38;4980971;28;20034;-85
2022/08/12 04:48:36;;;;;;;6.80;3.30;;;;;;;15.70;76.61;100034.72;4978313;28;20042;-84
2022/08/12 04:51:02;;;;;;;5.03;2.80;;;;;;;15.71;77.16;100047.44;4969445;28;20073;-84
2022/08/12 04:53:27;;;;;;;8.23;2.90;;;;;;;15.80;75.92;100048.19;4980034;28;20065;-84
2022/08/12 04:55:54;;;;;;;5.65;3.17;;;;;;;15.82;76.30;100040.09;5060510;28;20506;-85
2022/08/12 04:58:20;;;;;;;5.75;3.00;;;;;;;15.88;76.31;100039.47;4977244;28;20050;-84
2022/08/12 05:00:46;;;;;;;5.68;2.78;;;;;;;15.97;75.66;100037.41;4977784;28;20447;-84
2022/08/12 05:03:12;;;;;;;3.95;2.80;;;;;;;16.02;75.07;100036.72;4978774;28;20050;-84
2022/08/12 05:05:39;;;;;;;3.10;2.50;;;;;;;16.12;75.20;100034.69;4975788;28;20063;-84
2022/08/12 05:08:10;;;;;;;6.32;2.88;;;;;;;16.21;74.64;100040.22;5055284;28;20045;-84
2022/08/12 05:10:36;;;;;;;5.60;3.15;;;;;;;16.33;75.14;100039.22;4980867;28;20050;-84
2022/08/12 05:13:08;;;;;;;5.20;3.20;;;;;;;16.47;75.16;100041.28;5044020;28;20084;-85
2022/08/12 05:15:37;;;;;;;5.40;2.92;;;;;;;16.58;74.95;100040.78;4988143;28;20046;-84
2022/08/12 05:18:02;;;;;;;4.82;2.92;;;;;;;16.74;73.44;100032.69;4984144;28;20051;-85
2022/08/12 05:20:28;;;;;;;6.75;3.10;;;;;;;16.95;72.07;100038.44;5039054;28;20044;-84
2022/08/12 05:23:07;;;;;;;7.80;3.70;;;;;;;17.20;71.74;100038.66;4988230;28;20095;-84
2022/08/12 05:25:33;;;;;;;5.93;3.10;;;;;;;17.47;70.67;100032.00;4990434;28;20054;-84
2022/08/12 05:27:59;;;;;;;7.13;3.00;;;;;;;17.79;69.76;100040.72;4986313;28;20050;-84
2022/08/12 05:30:29;;;;;;;3.70;2.25;;;;;;;18.14;66.76;100044.28;4985262;28;20050;-84
2022/08/12 05:32:56;;;;;;;6.63;2.78;;;;;;;18.36;66.45;100041.03;4991194;28;20122;-85
2022/08/12 05:35:22;;;;;;;4.63;2.60;;;;;;;18.66;65.07;100044.50;5057198;28;20035;-83
2022/08/12 05:37:47;;;;;;;8.80;3.30;;;;;;;18.88;65.38;100050.38;4983795;28;20053;-83
2022/08/12 05:40:13;;;;;;;8.07;3.00;;;;;;;19.08;62.73;100047.53;4985966;28;20482;-83
2022/08/12 05:42:38;;;;;;;7.38;3.20;;;;;;;19.25;63.63;100058.97;5049668;28;20042;-83
2022/08/12 05:45:05;;;;;;;8.88;3.65;;;;;;;19.30;63.99;100059.00;4979652;28;20051;-84
2022/08/12 05:47:31;;;;;;;9.60;3.55;;;;;;;19.27;64.73;100054.38;4985952;28;20301;-86
2022/08/12 05:49:58;;;;;;;9.43;3.42;;;;;;;19.22;64.82;100066.34;5042389;28;20711;-85
2022/08/12 05:52:24;;;;;;;14.90;4.28;;;;;;;19.13;66.07;100052.44;4983098;28;20043;-85
2022/08/12 05:54:50;;;;;;;8.18;3.30;;;;;;;19.12;66.58;100056.53;4978654;28;20405;-84
2022/08/12 05:57:16;;;;;;;10.52;2.72;;;;;;;19.13;66.47;100060.84;4988522;28;20050;-85
2022/08/12 05:59:41;;;;;;;5.70;2.70;;;;;;;19.16;64.77;100053.50;4977033;28;20795;-85
2022/08/12 06:02:10;;;;;;;9.40;3.55;;;;;;;19.30;64.12;100056.19;4987094;28;20055;-85
2022/08/12 06:04:37;;;;;;;6.80;2.42;;;;;;;19.61;61.31;100057.53;4980500;28;20401;-84
2022/08/12 06:07:07;;;;;;;6.10;2.65;;;;;;;19.88;60.27;100062.59;5054146;28;20039;-85
2022/08/12 06:09:33;;;;;;;5.32;2.38;;;;;;;20.27;59.53;100062.84;4984303;28;20035;-86
2022/08/12 06:11:59;;;;;;;5.43;2.58;;;;;;;20.41;58.24;100061.94;5007251;28;20057;-85
2022/08/12 06:14:25;;;;;;;8.77;2.45;;;;;;;20.68;57.41;100061.31;5006263;28;20102;-84
2022/08/12 06:16:50;;;;;;;6.07;2.30;;;;;;;20.91;55.67;100056.50;4975418;28;20533;-84
2022/08/12 06:19:17;;;;;;;6.55;2.60;;;;;;;21.09;56.20;100066.56;4972243;28;20039;-84
2022/08/12 06:21:42;;;;;;;6.60;2.60;;;;;;;21.16;58.27;100071.75;4987391;28;20422;-84
2022/08/12 06:24:12;;;;;;;7.85;2.95;;;;;;;21.10;58.99;100056.84;4990994;28;20041;-84
2022/08/12 06:26:38;;;;;;;4.78;2.83;;;;;;;21.13;58.78;100079.19;4987258;28;20066;-84
2022/08/12 06:29:03;;;;;;;6.82;2.90;;;;;;;21.12;59.36;100079.69;4986468;28;20521;-84
2022/08/12 06:31:29;;;;;;;6.82;2.75;;;;;;;21.14;58.95;100072.25;4976891;28;20059;-85
2022/08/12 06:33:54;;;;;;;5.80;2.78;;;;;;;21.05;59.52;100078.09;4971775;28;20031;-84
2022/08/12 06:36:22;;;;;;;4.70;2.80;;;;;;;21.03;58.90;100077.06;5071817;28;20078;-83
2022/08/12 06:38:48;;;;;;;3.55;2.60;;;;;;;20.93;59.20;100082.16;4977580;28;20118;-84
2022/08/12 06:43:58;;;;;;;6.88;2.75;;;;;;;20.97;59.00;100082.69;5074964;28;20040;-84
2022/08/12 06:46:26;;;;;;;7.47;2.50;;;;;;;20.77;57.44;100080.81;5073324;28;20569;-84
2022/08/12 06:48:56;;;;;;;9.88;3.30;;;;;;;20.69;59.57;100085.41;5049786;28;20033;-84
2022/08/12 06:51:22;;;;;;;18.48;3.88;;;;;;;20.60;60.42;100077.16;4972397;28;20100;-84
2022/08/12 06:53:48;;;;;;;6.15;2.55;;;;;;;20.64;60.15;100071.28;4976258;28;20034;-83
2022/08/12 06:56:13;;;;;;;4.75;2.40;;;;;;;20.69;59.79;100084.63;4984348;28;20100;-86
2022/08/12 06:58:39;;;;;;;4.35;2.40;;;;;;;20.59;58.35;100086.09;5051388;28;20405;-84
2022/08/12 07:01:05;;;;;;;7.45;2.70;;;;;;;20.51;58.21;100082.22;4989076;28;20458;-84
2022/08/12 07:03:31;;;;;;;5.15;2.60;;;;;;;20.43;57.90;100077.06;4990142;28;20053;-84
2022/08/12 07:06:02;;;;;;;3.75;2.47;;;;;;;20.43;58.43;100071.44;4989844;28;20034;-84
2022/08/12 07:08:29;;;;;;;15.40;3.20;;;;;;;20.42;58.51;100074.78;5054947;28;20041;-84
2022/08/12 07:11:00;;;;;;;8.57;2.50;;;;;;;20.39;58.32;100076.53;4981090;28;20065;-84
2022/08/12 07:13:34;;;;;;;6.53;2.17;;;;;;;20.35;58.59;100078.81;4981573;28;20088;-84
2022/08/12 07:16:01;;;;;;;3.40;2.40;;;;;;;20.29;58.63;100082.88;4975428;28;20073;-85
2022/08/12 07:18:31;;;;;;;4.97;2.60;;;;;;;20.21;59.32;100088.19;4969775;28;20559;-84
2022/08/12 07:20:57;;;;;;;5.35;2.42;;;;;;;20.21;58.97;100085.38;4977796;28;20049;-84
2022/08/12 07:23:23;;;;;;;5.60;2.53;;;;;;;20.22;59.33;100081.25;4989383;28;20125;-84
2022/08/12 07:25:48;;;;;;;5.65;2.45;;;;;;;20.07;59.55;100079.88;4982734;28;20107;-84
2022/08/12 07:28:18;;;;;;;5.65;2.97;;;;;;;20.14;60.65;100080.19;4982211;28;20043;-84
2022/08/12 07:30:45;;;;;;;5.68;2.70;;;;;;;20.09;61.75;100078.13;4974107;28;20180;-84
2022/08/12 07:33:11;;;;;;;5.78;2.60;;;;;;;20.01;62.78;100077.03;4974645;28;20035;-83
2022/08/12 07:35:44;;;;;;;8.25;2.65;;;;;;;19.97;62.52;100084.94;4978590;28;20050;-84
2022/08/12 07:38:32;;;;;;;6.93;2.33;;;;;;;19.93;62.08;100087.22;4977052;28;20520;-84
2022/08/12 07:41:12;;;;;;;6.70;2.67;;;;;;;19.96;61.89;100080.56;4975826;28;20509;-84
2022/08/12 07:43:40;;;;;;;5.35;2.60;;;;;;;20.01;62.28;100082.66;4972720;28;20065;-83
2022/08/12 07:46:08;;;;;;;5.65;2.90;;;;;;;20.04;62.98;100078.84;4976156;28;20054;-84
2022/08/12 07:48:37;;;;;;;5.25;2.53;;;;;;;20.15;62.06;100084.53;4983767;28;20026;-84
2022/08/12 07:51:02;;;;;;;3.78;2.40;;;;;;;20.31;60.97;100080.31;5046913;28;20065;-85
2022/08/12 07:53:28;;;;;;;7.28;3.25;;;;;;;20.45;60.60;100073.75;5050814;28;20051;-84
2022/08/12 07:55:53;;;;;;;6.47;2.60;;;;;;;20.79;59.75;100083.13;4979766;28;20080;-84
2022/08/12 07:58:20;;;;;;;3.78;2.55;;;;;;;21.24;57.96;100076.38;4978963;28;20035;-84
2022/08/12 08:00:48;;;;;;;3.83;2.20;;;;;;;21.75;55.75;100072.34;5048660;28;20043;-84
2022/08/12 08:03:15;;;;;;;6.10;2.88;;;;;;;22.04;53.88;100082.34;4985962;28;20077;-86
2022/08/12 08:05:47;;;;;;;4.38;2.40;;;;;;;22.39;51.71;100078.97;5057488;28;20077;-86
2022/08/12 08:08:21;;;;;;;4.60;2.17;;;;;;;22.82;50.84;100070.09;4996206;28;20029;-85
2022/08/12 08:10:48;;;;;;;5.80;2.17;;;;;;;23.43;48.29;100066.94;5046234;28;20062;-85
2022/08/12 08:13:14;;;;;;;6.10;2.50;;;;;;;24.10;47.66;100073.56;4976587;28;20034;-85
2022/08/12 08:15:39;;;;;;;5.28;2.60;;;;;;;23.86;45.88;100079.22;5017112;28;20493;-84
2022/08/12 08:18:08;;;;;;;3.25;2.40;;;;;;;23.68;45.69;100060.06;4976598;28;20050;-85
2022/08/12 08:20:40;;;;;;;4.45;2.55;;;;;;;23.93;45.04;100072.22;4976826;28;20784;-84
2022/08/12 08:23:09;;;;;;;5.13;2.75;;;;;;;23.95;46.57;100067.53;4973299;28;20043;-85
2022/08/12 08:25:37;;;;;;;5.32;2.20;;;;;;;24.32;46.96;100069.78;4969114;28;20050;-84
2022/08/12 08:28:11;;;;;;;4.38;2.55;;;;;;;24.37;46.02;100062.53;4973508;28;20038;-84
2022/08/12 08:30:43;;;;;;;4.22;2.17;;;;;;;24.94;44.76;100070.63;4979436;28;21168;-84
2022/08/12 08:33:10;;;;;;;4.65;2.47;;;;;;;25.08;44.18;100068.63;4976661;28;20043;-83
2022/08/12 08:35:38;;;;;;;4.75;2.47;;;;;;;25.34;43.96;100068.78;4983247;28;20050;-85
2022/08/12 08:38:14;;;;;;;4.65;2.50;;;;;;;25.82;40.51;100072.69;4987178;28;20492;-86
2022/08/12 08:43:30;;;;;;;4.18;2.45;;;;;;;25.50;41.94;100076.28;4979399;28;20142;-85
2022/08/12 08:45:56;;;;;;;8.13;2.55;;;;;;;25.32;42.13;100079.13;4976828;28;20038;-83
2022/08/12 08:48:23;;;;;;;4.13;2.50;;;;;;;25.40;42.27;100077.19;4976714;28;20092;-84
2022/08/12 08:50:49;;;;;;;4.88;2.50;;;;;;;25.83;41.68;100069.31;4983077;28;20072;-83
2022/08/12 08:53:15;;;;;;;4.32;2.50;;;;;;;26.05;40.14;100056.00;4986294;28;20072;-85
2022/08/12 08:55:41;;;;;;;5.38;2.67;;;;;;;26.07;39.97;100062.69;4987033;28;20097;-85
2022/08/12 08:58:07;;;;;;;4.28;2.70;;;;;;;25.90;40.46;100057.31;4983040;28;20062;-85
2022/08/12 09:00:33;;;;;;;4.68;2.50;;;;;;;26.06;40.20;100063.22;4973780;28;20632;-85
2022/08/12 09:03:03;;;;;;;4.90;2.70;;;;;;;25.95;40.27;100052.84;4984582;28;20042;-86
2022/08/12 09:05:28;;;;;;;5.60;2.47;;;;;;;26.39;41.73;100051.28;4971850;28;20112;-85
2022/08/12 09:07:55;;;;;;;4.68;2.60;;;;;;;26.66;38.79;100055.63;4986691;28;20494;-85
2022/08/12 09:10:21;;;;;;;7.22;2.80;;;;;;;26.61;39.04;100050.06;4981210;28;20038;-85
2022/08/12 09:15:31;;;;;;;5.57;2.40;;;;;;;26.81;38.74;100052.97;4988380;28;20051;-86
2022/08/12 09:17:58;;;;;;;3.60;2.35;;;;;;;26.95;38.58;100047.28;4988261;28;20436;-86
2022/08/12 09:20:26;;;;;;;5.30;2.47;;;;;;;27.10;38.98;100045.38;4998904;28;20058;-87
2022/08/12 09:22:53;;;;;;;4.03;2.20;;;;;;;27.41;36.32;100046.50;4991434;28;20559;-86
2022/08/12 09:25:20;;;;;;;3.00;2.28;;;;;;;27.46;38.87;100047.69;5057518;28;20132;-86
2022/08/12 09:27:46;;;;;;;5.32;2.40;;;;;;;27.64;35.81;100038.97;5056944;28;20046;-86
2022/08/12 09:30:14;;;;;;;5.90;2.75;;;;;;;27.69;37.43;100038.06;4989209;28;20523;-86
2022/08/12 09:32:49;;;;;;;3.15;2.13;;;;;;;27.89;34.88;100050.00;4989794;28;20079;-86
2022/08/12 09:35:19;;;;;;;2.95;2.10;;;;;;;27.50;34.03;100054.59;4990793;28;20096;-85
2022/08/12 09:37:50;;;;;;;5.50;2.22;;;;;;;27.41;34.65;100040.81;5064778;28;20045;-85
2022/08/12 09:40:17;;;;;;;5.10;2.30;;;;;;;27.54;33.88;100031.47;5050208;28;20043;-83
2022/08/12 09:45:30;;;;;;;3.38;2.35;;;;;;;27.64;34.41;100036.13;4969950;28;20391;-83
2022/08/12 09:47:57;;;;;;;3.53;2.20;;;;;;;28.00;34.64;100024.06;5038140;28;21306;-84
2022/08/12 09:50:23;;;;;;;3.17;2.20;;;;;;;28.39;34.10;100023.78;4976598;28;20050;-84
2022/08/12 09:53:06;;;;;;;4.20;2.30;;;;;;;28.56;33.86;100026.91;4975173;28;20442;-84
2022/08/12 09:55:32;;;;;;;6.45;2.45;;;;;;;28.67;33.34;100032.28;4977078;28;20102;-83
2022/08/12 09:57:58;;;;;;;4.00;2.10;;;;;;;28.86;32.91;100025.56;5034041;28;20049;-84
2022/08/12 10:00:26;;;;;;;3.95;2.38;;;;;;;29.19;32.33;100024.53;4985289;28;20046;-84
2022/08/12 10:02:58;;;;;;;7.43;2.55;;;;;;;29.08;32.61;100024.88;4996927;28;20047;-83
2022/08/12 10:05:24;;;;;;;2.92;2.10;;;;;;;29.05;31.96;100006.00;4982630;28;20069;-84
2022/08/12 10:07:49;;;;;;;4.60;2.25;;;;;;;28.84;32.64;100016.78;4978806;28;20498;-84
2022/08/12 10:10:15;;;;;;;5.05;2.50;;;;;;;28.86;32.57;100011.28;4977223;28;20047;-83
2022/08/12 10:15:28;;;;;;;2.95;2.10;;;;;;;28.89;32.51;100001.59;4972436;28;20474;-83
2022/08/12 10:17:54;;;;;;;4.32;2.70;;;;;;;28.99;32.31;99996.88;4984885;28;20054;-83
2022/08/12 10:20:19;;;;;;;6.13;2.22;;;;;;;29.08;32.50;99997.06;4975511;28;20083;-83
2022/08/12 10:22:57;;;;;;;5.03;2.10;;;;;;;29.20;31.57;99997.47;4976743;28;20038;-83
2022/08/12 10:30:52;;;;;;;6.32;2.30;;;;;;;29.36;31.52;99996.19;4983969;28;20541;-83
2022/08/12 10:33:18;;;;;;;3.70;2.20;;;;;;;29.27;32.07;100002.47;4976807;28;20118;-83
2022/08/12 10:35:43;;;;;;;2.03;1.83;;;;;;;29.12;31.86;99994.59;4972107;28;20444;-84
2022/08/12 10:38:10;;;;;;;5.28;2.30;;;;;;;29.46;33.20;99991.47;4988941;28;20481;-84
2022/08/12 10:43:39;;;;;;;4.90;2.20;;;;;;;29.86;31.13;99988.03;4982261;28;20051;-82
2022/08/12 10:43:42;;;;;;;2.63;2.30;;;;;;;30.37;30.73;99976.34;4979486;28;20039;-81
2022/08/12 10:46:16;;;;;;;5.15;2.10;;;;;;;30.17;30.13;99978.09;5017088;28;20050;-81
2022/08/12 10:48:50;;;;;;;4.40;1.90;;;;;;;29.94;31.29;99966.69;4985564;28;20089;-85
2022/08/12 10:51:19;;;;;;;3.35;2.05;;;;;;;29.85;32.12;99980.78;5039818;28;20410;-83
2022/08/12 10:53:45;;;;;;;3.13;2.17;;;;;;;29.45;30.64;99972.78;5054810;28;20412;-82
2022/08/12 10:56:15;;;;;;;4.72;2.00;;;;;;;29.12;32.48;99968.13;5056833;28;20054;-80
2022/08/12 10:58:41;;;;;;;2.60;1.90;;;;;;;28.64;32.95;99976.34;4986765;28;20585;-81
2022/08/12 11:01:09;;;;;;;4.35;2.10;;;;;;;28.76;32.50;99964.63;5054933;28;20122;-79
2022/08/12 11:03:38;;;;;;;2.95;2.00;;;;;;;28.83;33.26;99963.91;4987488;28;20501;-79
2022/08/12 11:06:08;;;;;;;4.63;2.15;;;;;;;29.27;34.57;99968.19;4987335;28;20050;-80
2022/08/12 11:08:37;;;;;;;2.78;2.10;;;;;;;28.78;32.86;99967.69;5053470;28;20065;-84
2022/08/12 11:11:08;;;;;;;3.05;2.05;;;;;;;28.52;32.67;99972.28;4988354;28;20309;-86
2022/08/12 11:13:35;;;;;;;4.45;2.33;;;;;;;28.24;33.78;99978.03;4988414;28;20047;-85
2022/08/12 11:16:00;;;;;;;5.43;2.30;;;;;;;28.18;34.52;99968.91;5055711;28;20113;-86
2022/08/12 11:18:27;;;;;;;3.88;2.25;;;;;;;28.00;33.96;99969.88;5039305;28;20510;-81
2022/08/12 11:20:53;;;;;;;4.68;2.40;;;;;;;28.00;34.50;99967.03;4989376;28;20046;-81
2022/08/12 11:23:20;;;;;;;4.32;2.15;;;;;;;27.87;34.11;99973.59;4989825;28;20114;-81
2022/08/12 11:25:46;;;;;;;4.25;2.50;;;;;;;27.91;34.42;99968.31;4989175;28;20074;-81
2022/08/12 11:28:12;;;;;;;3.38;2.38;;;;;;;27.92;34.88;99966.22;4989530;28;20477;-81
2022/08/12 11:30:38;;;;;;;6.18;2.33;;;;;;;28.04;34.39;99971.06;4989117;28;20041;-81
2022/08/12 11:33:03;;;;;;;7.47;2.50;;;;;;;28.21;34.31;99964.91;4989255;28;20046;-81
2022/08/12 11:35:29;;;;;;;4.18;2.30;;;;;;;28.41;33.80;99954.75;4988924;28;20054;-81
2022/08/12 11:37:54;;;;;;;4.28;2.17;;;;;;;28.60;33.33;99953.13;5056185;28;20073;-79
2022/08/12 11:40:20;;;;;;;4.15;2.30;;;;;;;29.09;33.34;99952.16;4989245;28;20046;-81
2022/08/12 11:42:45;;;;;;;5.57;2.60;;;;;;;29.27;32.37;99956.00;5056161;28;20054;-81
2022/08/12 11:45:11;;;;;;;4.25;2.38;;;;;;;29.12;32.39;99946.06;5056092;28;20052;-81
2022/08/12 11:47:37;;;;;;;2.55;1.92;;;;;;;29.30;33.08;99964.22;4988762;28;20035;-80
2022/08/12 11:50:04;;;;;;;3.78;2.10;;;;;;;29.75;33.10;99954.13;5056327;28;20042;-82
2022/08/12 11:52:29;;;;;;;3.13;2.10;;;;;;;29.96;31.28;99960.41;4988741;28;20123;-79
2022/08/12 11:54:55;;;;;;;2.83;1.95;;;;;;;29.53;30.03;99952.78;4989221;28;20386;-80
2022/08/12 11:57:20;;;;;;;2.83;2.15;;;;;;;29.22;31.69;99954.06;4990507;28;20133;-80
2022/08/12 11:59:46;;;;;;;8.38;2.40;;;;;;;29.19;31.55;99953.91;4996355;28;20496;-80
2022/08/12 12:02:12;;;;;;;4.38;2.13;;;;;;;29.25;32.02;99945.13;5056019;28;20046;-81
2022/08/12 12:04:37;;;;;;;4.10;2.00;;;;;;;29.33;33.18;99943.06;4988669;28;20054;-81
2022/08/12 12:07:03;;;;;;;7.63;2.08;;;;;;;29.48;31.26;99954.50;5056111;28;20054;-81
2022/08/12 12:09:28;;;;;;;3.15;2.00;;;;;;;29.67;30.45;99941.94;4989080;28;20211;-78
2022/08/12 12:11:54;;;;;;;3.78;2.00;;;;;;;30.01;30.28;99943.03;4974298;28;20184;-80
2022/08/12 12:14:19;;;;;;;4.78;2.00;;;;;;;30.12;29.59;99930.44;4973350;28;20035;-80
2022/08/12 12:16:45;;;;;;;5.80;2.10;;;;;;;30.43;30.16;99943.34;4970993;28;20176;-80
2022/08/12 12:19:11;;;;;;;4.57;1.92;;;;;;;30.57;28.18;99928.78;4974306;28;20069;-81
2022/08/12 12:21:38;;;;;;;3.65;2.00;;;;;;;30.83;28.68;99933.97;4977596;28;20470;-79
2022/08/12 12:24:04;;;;;;;3.53;2.00;;;;;;;31.00;28.01;99940.59;4982063;28;20043;-79
2022/08/12 12:26:30;;;;;;;2.42;2.00;;;;;;;31.22;27.43;99936.03;4967623;28;20153;-79
2022/08/12 12:28:55;;;;;;;3.63;1.98;;;;;;;31.32;26.89;99936.94;4976662;28;20150;-79
2022/08/12 12:31:23;;;;;;;2.55;1.95;;;;;;;31.26;27.35;99929.94;5044930;28;20101;-79
2022/08/12 12:33:48;;;;;;;4.05;2.17;;;;;;;31.48;27.75;99938.34;4968108;28;20035;-78
2022/08/12 12:36:14;;;;;;;4.40;1.98;;;;;;;31.34;27.91;99937.09;4975169;28;20042;-79
2022/08/12 12:38:39;;;;;;;2.40;1.70;;;;;;;30.86;29.01;99927.84;4979136;28;20039;-79
2022/08/12 12:41:05;;;;;;;4.03;2.03;;;;;;;30.67;28.93;99932.53;4975415;28;20093;-79
2022/08/12 12:43:30;;;;;;;3.25;2.00;;;;;;;30.74;28.60;99923.16;4973642;28;20061;-79
2022/08/12 12:45:56;;;;;;;2.38;2.00;;;;;;;30.57;28.77;99917.34;4986773;28;20059;-79
2022/08/12 12:48:21;;;;;;;2.17;1.80;;;;;;;30.91;27.88;99912.56;4979630;28;20115;-79
2022/08/12 12:53:38;;;;;;;3.05;2.20;;;;;;;30.94;27.82;99916.34;4968800;28;20039;-80
2022/08/12 12:56:05;;;;;;;5.03;1.90;;;;;;;30.97;27.95;99909.47;4975393;28;20042;-82
2022/08/12 12:58:31;;;;;;;2.50;2.03;;;;;;;31.27;27.09;99909.25;4976402;28;20046;-80
2022/08/12 13:00:58;;;;;;;2.42;1.95;;;;;;;31.28;27.99;99907.94;4977101;28;20435;-80
2022/08/12 13:03:25;;;;;;;2.88;2.10;;;;;;;31.38;28.19;99903.06;5049587;28;20042;-81
2022/08/12 13:05:51;;;;;;;3.47;1.90;;;;;;;31.18;27.50;99901.31;4983515;28;20504;-83
2022/08/12 13:08:23;;;;;;;4.20;1.90;;;;;;;30.85;27.23;99891.22;4974147;28;20062;-84
2022/08/12 13:10:50;;;;;;;4.32;1.92;;;;;;;30.70;27.37;99888.44;4967588;28;20047;-83
2022/08/12 13:13:17;;;;;;;2.53;1.80;;;;;;;30.83;28.10;99883.19;4968579;28;20038;-83
2022/08/12 13:15:43;;;;;;;4.53;2.30;;;;;;;30.97;27.07;99883.69;4971561;28;20046;-84
2022/08/12 13:18:08;;;;;;;3.40;2.00;;;;;;;31.21;27.45;99880.09;4972422;28;20043;-81
2022/08/12 13:20:34;;;;;;;2.00;1.77;;;;;;;30.87;25.51;99871.34;4971561;28;20039;-82